Aidamar — ICSJ — position and weather

sailwx.info

Track history (hours):
 
Tides and Currents Weather Stations Pressure Air Temp Water Temp Dewpoint Dewpoint Depression Visibility Wind Speed Wind Dir Waves Ship Positions

Aidamar

Last reported at 2017-Jul-21 06:22 UTC. Time now 2017-Jul-21 08:45 UTC.
Position N 57°57' E 018°12'.

Length 253 m; draft 7.3 m.

Type: Passenger vessel. MMSI: 247312900.

Date/timePositionNaut miles runAvg speedWind from/ knotsBaromVisibWave heightAir tempDewpointWater temp
2017-Jul-21 06:22N 57°57' E 018°12'6216.1
2017-Jul-21 02:33N 58°50' E 019°11'316.4
2017-Jul-21 02:23N 58°52' E 019°14'616.0
2017-Jul-21 02:00N 58°57' E 019°20'916.3
2017-Jul-21 01:27N 59°05' E 019°29'716.3
2017-Jul-21 01:00N 59°11' E 019°36'816.1
2017-Jul-21 00:30N 59°18' E 019°44'816.5
2017-Jul-21 00:00N 59°25' E 019°52'816.5
2017-Jul-20 23:30N 59°33' E 019°58'815.7
2017-Jul-20 23:00N 59°40' E 019°51'816.0
2017-Jul-20 22:30N 59°45' E 019°38'815.5
2017-Jul-20 22:00N 59°46' E 019°23'714.2
2017-Jul-20 21:30N 59°44' E 019°10'815.9
2017-Jul-20 21:00N 59°40' E 018°56'611.6
2017-Jul-20 20:30N 59°36' E 018°47'4 9.0
2017-Jul-20 20:00N 59°34' E 018°39'5 9.9
2017-Jul-20 19:30N 59°31' E 018°31'5 9.4
2017-Jul-20 19:01N 59°27' E 018°26'4 8.3
2017-Jul-20 18:30N 59°23' E 018°27'3 6.4
2017-Jul-20 18:00N 59°22' E 018°21'510.8
2017-Jul-20 17:30N 59°20' E 018°11'2 2.9
2017-Jul-20 16:54N 59°21' E 018°08'0 0.0
2017-Jul-20 16:30N 59°21' E 018°08'0 0.0
2017-Jul-20 16:00N 59°21' E 018°08'0 0.0
2017-Jul-20 15:29N 59°21' E 018°08'0 0.0
2017-Jul-20 14:57N 59°21' E 018°08'0 0.0
2017-Jul-20 13:59N 59°21' E 018°08'0 0.0
2017-Jul-20 13:28N 59°21' E 018°08'0 0.0
2017-Jul-20 12:57N 59°21' E 018°08'0 0.0
2017-Jul-20 12:30N 59°21' E 018°08'0 0.0
2017-Jul-20 12:01N 59°21' E 018°08'0 0.0
2017-Jul-20 11:29N 59°21' E 018°08'0 0.0
2017-Jul-20 10:58N 59°21' E 018°08'0 0.0
2017-Jul-20 10:27N 59°21' E 018°08'0 0.0
2017-Jul-20 10:00N 59°21' E 018°08'0 0.0
2017-Jul-20 09:29N 59°21' E 018°08'0 0.0
2017-Jul-20 08:56N 59°21' E 018°08'0 0.0
2017-Jul-20 08:26N 59°21' E 018°08'0 0.0
2017-Jul-20 07:59N 59°21' E 018°08'0 0.0
2017-Jul-20 07:31N 59°21' E 018°08'2 4.7
2017-Jul-20 07:01N 59°20' E 018°12'510.9
2017-Jul-20 06:30N 59°22' E 018°22'3 5.2
2017-Jul-20 06:00N 59°24' E 018°26'4 8.9
2017-Jul-20 05:30N 59°28' E 018°26'510.4
2017-Jul-20 05:00N 59°32' E 018°33'510.5
2017-Jul-20 04:30N 59°35' E 018°42'612.5
2017-Jul-20 04:00N 59°38' E 018°52'510.8
2017-Jul-20 03:31N 59°42' E 019°01'815.5
2017-Jul-20 03:01N 59°45' E 019°15'713.9
2017-Jul-20 02:30N 59°47' E 019°28'714.3
2017-Jul-20 02:00N 59°48' E 019°42'815.7
2017-Jul-20 01:30N 59°43' E 019°54'815.8
2017-Jul-20 01:00N 59°38' E 020°06'816.1
2017-Jul-20 00:30N 59°36' E 020°22'816.0
2017-Jul-20 00:00N 59°35' E 020°37'815.8
2017-Jul-19 23:31N 59°34' E 020°53'815.8
2017-Jul-19 23:01N 59°32' E 021°08'815.9
2017-Jul-19 22:31N 59°30' E 021°23'816.0
2017-Jul-19 22:00N 59°29' E 021°39'815.8
2017-Jul-19 21:31N 59°28' E 021°54'815.6
2017-Jul-19 21:01N 59°27' E 022°09'816.2
2017-Jul-19 20:30N 59°29' E 022°24'816.2
2017-Jul-19 20:00N 59°31' E 022°40'816.9
2017-Jul-19 19:30N 59°33' E 022°56'714.5
2017-Jul-19 19:01N 59°36' E 023°10'815.7
2017-Jul-19 18:31N 59°38' E 023°24'815.8
2017-Jul-19 18:01N 59°40' E 023°39'815.8
2017-Jul-19 17:31N 59°43' E 023°54'815.8
2017-Jul-19 17:01N 59°46' E 024°09'815.7
2017-Jul-19 16:31N 59°49' E 024°22'815.5
2017-Jul-19 16:00N 59°53' E 024°36'714.8
2017-Jul-19 15:30N 59°57' E 024°48'5 9.7
2017-Jul-19 15:01N 60°01' E 024°54'4 8.7
2017-Jul-19 14:31N 60°06' E 024°54'3 6.4
2017-Jul-19 13:59N 60°09' E 024°55'0 0.0
2017-Jul-19 13:29N 60°09' E 024°55'0 0.0
2017-Jul-19 12:58N 60°09' E 024°55'0 0.0
2017-Jul-19 12:30N 60°09' E 024°55'0 0.0
2017-Jul-19 11:59N 60°09' E 024°55'0 0.0
2017-Jul-19 11:29N 60°09' E 024°55'0 0.0
2017-Jul-19 10:59N 60°09' E 024°55'0 0.0
2017-Jul-19 10:29N 60°09' E 024°55'0 0.0
2017-Jul-19 09:59N 60°09' E 024°55'0 0.0
2017-Jul-19 09:29N 60°09' E 024°55'0 0.0
2017-Jul-19 08:59N 60°09' E 024°55'0 0.0
2017-Jul-19 08:29N 60°09' E 024°55'0 0.0
2017-Jul-19 07:59N 60°09' E 024°55'0 0.0
2017-Jul-19 07:29N 60°09' E 024°55'0 0.0
2017-Jul-19 06:59N 60°09' E 024°55'0 0.0
2017-Jul-19 06:29N 60°09' E 024°55'0 0.0
2017-Jul-19 05:59N 60°09' E 024°55'0 0.0
2017-Jul-19 05:30N 60°09' E 024°55'1 1.9
2017-Jul-19 05:00N 60°08' E 024°54'612.4
2017-Jul-19 04:31N 60°02' E 024°55'713.1
2017-Jul-19 04:01N 59°56' E 025°02'815.7
2017-Jul-19 03:31N 59°56' E 025°18'815.6
2017-Jul-19 03:01N 59°55' E 025°34'815.5
2017-Jul-19 02:30N 59°55' E 025°49'815.6
2017-Jul-19 02:01N 59°57' E 026°04'815.7
2017-Jul-19 01:31N 59°59' E 026°19'815.6
2017-Jul-19 01:01N 60°01' E 026°34'815.5
2017-Jul-19 00:30N 60°00' E 026°50'815.2
2017-Jul-19 00:01N 59°60' E 027°05'815.9
2017-Jul-18 23:30N 60°04' E 027°18'815.8
2017-Jul-18 23:00N 60°08' E 027°32'815.7
2017-Jul-18 22:31N 60°12' E 027°45'815.1
2017-Jul-18 22:00N 60°10' E 027°60'815.1
2017-Jul-18 21:30N 60°08' E 028°14'815.1
2017-Jul-18 21:00N 60°04' E 028°27'815.8
2017-Jul-18 20:30N 60°03' E 028°43'713.9
2017-Jul-18 20:00N 60°03' E 028°56'816.3
2017-Jul-18 19:30N 60°02' E 029°13'713.1
2017-Jul-18 18:59N 60°02' E 029°26'611.5
2017-Jul-18 18:30N 60°00' E 029°37'1510.1
2017-Jul-18 17:01N 59°57' E 030°06'0 9.9
2017-Jul-18 17:00N 59°57' E 030°06'3 5.1
2017-Jul-18 16:30N 59°57' E 030°11'0 0.0
2017-Jul-18 15:54N 59°57' E 030°11'0 0.0
2017-Jul-18 15:19N 59°57' E 030°11'0 0.0
2017-Jul-18 14:57N 59°57' E 030°11'0 0.0
2017-Jul-18 13:59N 59°57' E 030°11'0 0.0
2017-Jul-18 13:29N 59°57' E 030°11'0 0.0
2017-Jul-18 12:59N 59°57' E 030°11'0 0.0
2017-Jul-18 12:28N 59°57' E 030°11'0 0.0
2017-Jul-18 12:01N 59°57' E 030°11'0 0.0
2017-Jul-18 11:30N 59°57' E 030°11'0 0.0
2017-Jul-18 11:00N 59°57' E 030°11'0 0.0
2017-Jul-18 10:26N 59°57' E 030°11'0 0.0
2017-Jul-18 10:00N 59°57' E 030°11'0 0.0
2017-Jul-18 09:29N 59°57' E 030°11'0 0.0
2017-Jul-18 09:00N 59°57' E 030°11'0 0.0
2017-Jul-18 08:27N 59°57' E 030°11'0 0.0
2017-Jul-18 07:53N 59°57' E 030°11'0 0.0
2017-Jul-18 07:29N 59°57' E 030°11'0 0.0
2017-Jul-18 07:00N 59°57' E 030°11'0 0.0
2017-Jul-18 06:30N 59°57' E 030°11'0 0.0
2017-Jul-18 05:59N 59°57' E 030°11'0 0.0
2017-Jul-18 05:29N 59°57' E 030°11'0 0.0
2017-Jul-18 04:45N 59°57' E 030°11'0 0.0
2017-Jul-18 04:30N 59°57' E 030°11'0 0.3
2017-Jul-18 04:00N 59°57' E 030°11'4 7.5
2017-Jul-18 03:30N 59°56' E 030°04'510.8
2017-Jul-18 03:00N 59°57' E 029°53'510.3
2017-Jul-18 02:30N 59°59' E 029°44'2112.6
2017-Jul-18 00:50N 60°02' E 029°02'515.9
2017-Jul-18 00:30N 60°02' E 028°52'815.7
2017-Jul-18 00:01N 60°02' E 028°36'714.6
2017-Jul-17 23:30N 60°04' E 028°23'815.1
2017-Jul-17 23:01N 60°08' E 028°09'815.6
2017-Jul-17 22:31N 60°10' E 027°54'714.8
2017-Jul-17 22:00N 60°09' E 027°40'815.2
2017-Jul-17 21:30N 60°05' E 027°27'815.4
2017-Jul-17 21:01N 60°01' E 027°13'815.6
2017-Jul-17 20:31N 59°58' E 026°59'715.0
2017-Jul-17 20:01N 59°59' E 026°44'714.3
2017-Jul-17 19:30N 59°58' E 026°30'815.3
2017-Jul-17 19:00N 59°56' E 026°15'815.4
2017-Jul-17 18:30N 59°54' E 026°01'815.3
2017-Jul-17 18:00N 59°51' E 025°46'815.5
2017-Jul-17 17:30N 59°49' E 025°32'815.5
2017-Jul-17 17:00N 59°47' E 025°17'815.7
2017-Jul-17 16:30N 59°44' E 025°02'815.7
2017-Jul-17 16:01N 59°41' E 024°48'713.3
2017-Jul-17 15:30N 59°35' E 024°43'714.4
2017-Jul-17 15:01N 59°28' E 024°46'1 1.1
2017-Jul-17 14:28N 59°27' E 024°46'0 0.0
2017-Jul-17 13:58N 59°27' E 024°46'0 0.0
2017-Jul-17 13:29N 59°27' E 024°46'0 0.0
2017-Jul-17 12:57N 59°27' E 024°46'0 0.0
2017-Jul-17 12:30N 59°27' E 024°46'0 0.0
2017-Jul-17 12:00N 59°27' E 024°46'0 0.0
2017-Jul-17 11:30N 59°27' E 024°46'0 0.0
2017-Jul-17 11:00N 59°27' E 024°46'0 0.0
2017-Jul-17 10:29N 59°27' E 024°46'0 0.0
2017-Jul-17 09:59N 59°27' E 024°46'0 0.0
2017-Jul-17 09:29N 59°27' E 024°46'0 0.0
2017-Jul-17 08:59N 59°27' E 024°46'0 0.0
2017-Jul-17 08:24N 59°27' E 024°46'0 0.0
2017-Jul-17 07:56N 59°27' E 024°46'0 0.0
2017-Jul-17 07:29N 59°27' E 024°46'0 0.0
2017-Jul-17 06:59N 59°27' E 024°46'0 0.0
2017-Jul-17 06:29N 59°27' E 024°46'0 0.0
2017-Jul-17 06:00N 59°27' E 024°46'0 0.0
2017-Jul-17 05:30N 59°27' E 024°46'2 3.7
2017-Jul-17 05:00N 59°29' E 024°45'713.2
2017-Jul-17 04:30N 59°30' E 024°33'612.2
2017-Jul-17 04:00N 59°30' E 024°21'713.6
2017-Jul-17 03:30N 59°30' E 024°07'714.5
2017-Jul-17 03:00N 59°30' E 023°53'714.4
2017-Jul-17 02:30N 59°30' E 023°39'714.5
2017-Jul-17 02:01N 59°30' E 023°24'714.5
2017-Jul-17 01:30N 59°30' E 023°10'714.7
2017-Jul-17 01:00N 59°28' E 022°56'714.6
2017-Jul-17 00:31N 59°26' E 022°42'714.3
2017-Jul-17 00:00N 59°22' E 022°30'714.5
2017-Jul-16 23:31N 59°18' E 022°18'714.6
2017-Jul-16 23:00N 59°14' E 022°07'714.6
2017-Jul-16 22:30N 59°09' E 021°55'714.4
2017-Jul-16 22:01N 59°05' E 021°45'714.6
2017-Jul-16 21:31N 58°59' E 021°37'815.2
2017-Jul-16 21:00N 58°52' E 021°29'816.1
2017-Jul-16 20:30N 58°46' E 021°20'713.4
2017-Jul-16 20:00N 58°40' E 021°13'713.2
2017-Jul-16 19:30N 58°35' E 021°06'714.0
2017-Jul-16 19:01N 58°29' E 020°58'714.4
2017-Jul-16 18:30N 58°23' E 020°51'714.6
2017-Jul-16 18:00N 58°17' E 020°43'714.6
2017-Jul-16 17:30N 58°11' E 020°35'714.8
2017-Jul-16 17:01N 58°05' E 020°27'714.9
2017-Jul-16 16:30N 57°58' E 020°20'816.4
2017-Jul-16 16:00N 57°52' E 020°11'714.9
2017-Jul-16 15:30N 57°46' E 020°01'714.5
2017-Jul-16 15:00N 57°40' E 019°53'714.1
2017-Jul-16 14:30N 57°35' E 019°45'816.4
2017-Jul-16 14:00N 57°29' E 019°35'714.4
2017-Jul-16 13:30N 57°23' E 019°27'714.5
2017-Jul-16 13:00N 57°17' E 019°19'814.5
2017-Jul-16 12:26N 57°11' E 019°09'716.3
2017-Jul-16 12:00N 57°05' E 019°01'713.9
2017-Jul-16 11:29N 56°59' E 018°53'1215.8
2017-Jul-16 10:45N 56°51' E 018°38'414.9
2017-Jul-16 10:30N 56°49' E 018°33'815.1
2017-Jul-16 10:00N 56°44' E 018°22'1014.9
2017-Jul-16 09:21N 56°38' E 018°08'514.0
2017-Jul-16 09:00N 56°35' E 018°01'913.6
2017-Jul-16 08:21N 56°30' E 017°48'515.0
2017-Jul-16 08:00N 56°27' E 017°41'715.2
2017-Jul-16 07:31N 56°22' E 017°30'816.9
2017-Jul-16 07:00N 56°17' E 017°18'714.1
2017-Jul-16 06:31N 56°12' E 017°08'714.8
2017-Jul-16 06:01N 56°08' E 016°58'714.6
2017-Jul-16 05:31N 56°04' E 016°47'815.6
2017-Jul-16 05:01N 55°60' E 016°35'816.3
2017-Jul-16 04:31N 55°56' E 016°22'816.3
2017-Jul-16 04:00N 55°52' E 016°09'816.4
2017-Jul-16 03:30N 55°48' E 015°56'816.4
2017-Jul-16 03:00N 55°44' E 015°43'816.4
2017-Jul-16 02:30N 55°40' E 015°31'816.7
2017-Jul-16 02:00N 55°36' E 015°18'816.7
2017-Jul-16 01:31N 55°32' E 015°05'816.9
2017-Jul-16 01:01N 55°28' E 014°52'816.7
2017-Jul-16 00:31N 55°24' E 014°40'816.3
2017-Jul-16 00:01N 55°17' E 014°31'816.2
2017-Jul-15 23:31N 55°10' E 014°23'816.3
2017-Jul-15 23:01N 55°04' E 014°14'815.4
2017-Jul-15 22:31N 54°60' E 014°03'816.3
2017-Jul-15 22:01N 54°58' E 013°49'816.5
2017-Jul-15 21:30N 54°55' E 013°35'816.5
2017-Jul-15 21:00N 54°53' E 013°22'916.5
2017-Jul-15 20:29N 54°50' E 013°08'1016.1
2017-Jul-15 19:50N 54°47' E 012°50'515.5
2017-Jul-15 19:31N 54°45' E 012°42'2515.1
2017-Jul-15 17:50N 54°26' E 012°12'516.0
2017-Jul-15 17:30N 54°22' E 012°07'714.8
2017-Jul-15 17:00N 54°15' E 012°05'4 1.2
2017-Jul-15 13:40N 54°11' E 012°06'0 0.0
2017-Jul-15 13:09N 54°11' E 012°06'0 0.0
2017-Jul-15 13:00N 54°11' E 012°06'0 0.0
2017-Jul-15 06:12N 54°11' E 012°06'0 0.0
2017-Jul-15 05:57N 54°11' E 012°06'0 0.0
2017-Jul-15 05:30N 54°11' E 012°06'0 0.0
2017-Jul-15 05:00N 54°11' E 012°06'3 4.1
2017-Jul-15 04:22N 54°13' E 012°04'5 7.4
2017-Jul-15 03:41N 54°18' E 012°01'412.1
2017-Jul-15 03:21N 54°21' E 011°58'611.2
2017-Jul-15 02:49N 54°26' E 012°04'414.7
2017-Jul-15 02:30N 54°29' E 012°11'815.6
2017-Jul-15 02:00N 54°36' E 012°15'815.1
2017-Jul-15 01:30N 54°41' E 012°25'815.5
2017-Jul-15 01:00N 54°45' E 012°36'715.0
2017-Jul-15 00:30N 54°48' E 012°48'1615.1
2017-Jul-14 23:26N 54°54' E 013°14'715.1
2017-Jul-14 22:59N 54°56' E 013°25'715.2
2017-Jul-14 22:30N 54°59' E 013°37'815.2
2017-Jul-14 22:00N 55°01' E 013°50'815.1
2017-Jul-14 21:30N 55°04' E 014°02'714.9
2017-Jul-14 21:00N 55°09' E 014°11'815.9
2017-Jul-14 20:30N 55°15' E 014°20'815.3
2017-Jul-14 20:00N 55°21' E 014°29'815.4
2017-Jul-14 19:30N 55°27' E 014°38'815.2
2017-Jul-14 19:00N 55°31' E 014°49'815.1
2017-Jul-14 18:30N 55°34' E 015°01'715.0
2017-Jul-14 18:00N 55°38' E 015°12'815.5
2017-Jul-14 17:30N 55°42' E 015°24'815.4
2017-Jul-14 17:01N 55°46' E 015°36'815.3
2017-Jul-14 16:30N 55°49' E 015°48'815.3
2017-Jul-14 16:01N 55°53' E 015°60'714.8
2017-Jul-14 15:31N 55°57' E 016°11'713.9
2017-Jul-14 15:01N 56°01' E 016°21'815.5
2017-Jul-14 14:30N 56°05' E 016°33'713.1
2017-Jul-14 14:00N 56°08' E 016°43'713.8
2017-Jul-14 13:28N 56°15' E 016°49'715.4
2017-Jul-14 13:01N 56°22' E 016°53'815.1
2017-Jul-14 12:30N 56°29' E 016°58'18315.6
2017-Jul-14 00:48N 59°12' E 019°34'515.4
2017-Jul-14 00:30N 59°15' E 019°40'815.2
2017-Jul-14 00:00N 59°21' E 019°48'815.3
2017-Jul-13 23:31N 59°28' E 019°55'815.2
2017-Jul-13 23:01N 59°35' E 019°58'815.8
2017-Jul-13 22:31N 59°42' E 019°49'816.0
2017-Jul-13 22:00N 59°46' E 019°35'714.4
2017-Jul-13 21:30N 59°46' E 019°20'714.3
2017-Jul-13 21:01N 59°43' E 019°07'714.6
2017-Jul-13 20:31N 59°39' E 018°55'510.2
2017-Jul-13 20:00N 59°36' E 018°47'612.3
2017-Jul-13 19:30N 59°33' E 018°36'4 8.6
2017-Jul-13 19:01N 59°31' E 018°29'611.1
2017-Jul-13 18:30N 59°26' E 018°23'4 6.3
2017-Jul-13 17:52N 59°22' E 018°24'410.3
2017-Jul-13 17:29N 59°22' E 018°16'510.3
2017-Jul-13 17:00N 59°19' E 018°07'1 1.2
2017-Jul-13 16:30N 59°19' E 018°06'0 0.0
2017-Jul-13 15:59N 59°19' E 018°06'0 0.0
2017-Jul-13 15:28N 59°19' E 018°06'0 0.0
2017-Jul-13 14:56N 59°19' E 018°06'0 0.0
2017-Jul-13 14:28N 59°19' E 018°06'0 0.0
2017-Jul-13 14:00N 59°19' E 018°06'0 0.0
2017-Jul-13 13:27N 59°19' E 018°06'0 0.0
2017-Jul-13 13:00N 59°19' E 018°06'0 0.0
2017-Jul-13 12:30N 59°19' E 018°06'0 0.0
2017-Jul-13 11:59N 59°19' E 018°06'0 0.0
2017-Jul-13 11:31N 59°19' E 018°06'0 0.0
2017-Jul-13 10:58N 59°19' E 018°06'0 0.0
2017-Jul-13 10:30N 59°19' E 018°06'0 0.0
2017-Jul-13 09:59N 59°19' E 018°06'0 0.0
2017-Jul-13 09:29N 59°19' E 018°06'0 0.0
2017-Jul-13 08:59N 59°19' E 018°06'0 0.0
2017-Jul-13 08:26N 59°19' E 018°06'0 0.0
2017-Jul-13 07:58N 59°19' E 018°06'0 0.0
2017-Jul-13 07:30N 59°19' E 018°06'1 1.2
2017-Jul-13 07:01N 59°19' E 018°07'5 9.8
2017-Jul-13 06:31N 59°22' E 018°16'5 9.3
2017-Jul-13 06:00N 59°22' E 018°25'3 6.6
2017-Jul-13 05:30N 59°25' E 018°24'510.0
2017-Jul-13 05:00N 59°30' E 018°28'5 9.7
2017-Jul-13 04:30N 59°33' E 018°35'510.6
2017-Jul-13 04:00N 59°35' E 018°45'611.8
2017-Jul-13 03:30N 59°39' E 018°54'611.7
2017-Jul-13 03:00N 59°42' E 019°03'815.5
2017-Jul-13 02:30N 59°45' E 019°17'612.1
2017-Jul-13 02:00N 59°47' E 019°29'713.5
2017-Jul-13 01:30N 59°48' E 019°42'714.9
2017-Jul-13 01:00N 59°43' E 019°54'815.1
2017-Jul-13 00:30N 59°38' E 020°04'815.1
2017-Jul-13 00:00N 59°36' E 020°19'815.6
2017-Jul-12 23:31N 59°36' E 020°34'816.0
2017-Jul-12 23:00N 59°35' E 020°50'917.2
2017-Jul-12 22:31N 59°34' E 021°07'816.2
2017-Jul-12 22:00N 59°33' E 021°23'713.7
2017-Jul-12 21:30N 59°32' E 021°36'816.9
2017-Jul-12 21:00N 59°30' E 021°53'815.9
2017-Jul-12 20:30N 59°30' E 022°08'815.2
2017-Jul-12 20:00N 59°30' E 022°23'917.2
2017-Jul-12 19:31N 59°31' E 022°40'714.2
2017-Jul-12 19:00N 59°32' E 022°54'815.3
2017-Jul-12 18:31N 59°33' E 023°09'917.5
2017-Jul-12 18:00N 59°32' E 023°26'815.2
2017-Jul-12 17:30N 59°32' E 023°41'815.3
2017-Jul-12 17:00N 59°31' E 023°56'714.3
2017-Jul-12 16:31N 59°30' E 024°10'816.2
2017-Jul-12 16:00N 59°30' E 024°26'714.7
2017-Jul-12 15:30N 59°32' E 024°40'5 9.2
2017-Jul-12 15:00N 59°28' E 024°46'1 0.8
2017-Jul-12 13:58N 59°27' E 024°46'0 0.0
2017-Jul-12 13:30N 59°27' E 024°46'0 0.0
2017-Jul-12 12:55N 59°27' E 024°46'0 0.0
2017-Jul-12 12:27N 59°27' E 024°46'0 0.0
2017-Jul-12 11:59N 59°27' E 024°46'0 0.0
2017-Jul-12 11:30N 59°27' E 024°46'0 0.0
2017-Jul-12 10:56N 59°27' E 024°46'0 0.0
2017-Jul-12 10:28N 59°27' E 024°46'0 0.0
2017-Jul-12 09:58N 59°27' E 024°46'0 0.0
2017-Jul-12 09:28N 59°27' E 024°46'0 0.0
2017-Jul-12 08:55N 59°27' E 024°46'0 0.0
2017-Jul-12 08:28N 59°27' E 024°46'0 0.0
2017-Jul-12 07:59N 59°27' E 024°46'0 0.0
2017-Jul-12 07:30N 59°27' E 024°46'0 0.0
2017-Jul-12 07:00N 59°27' E 024°46'0 0.0
2017-Jul-12 06:30N 59°27' E 024°46'0 0.0
2017-Jul-12 06:00N 59°27' E 024°46'0 0.4
2017-Jul-12 05:30N 59°27' E 024°46'4 8.0
2017-Jul-12 05:00N 59°31' E 024°44'714.7
2017-Jul-12 04:30N 59°38' E 024°39'714.3
2017-Jul-12 04:00N 59°45' E 024°42'815.6
2017-Jul-12 03:30N 59°50' E 024°54'816.7
2017-Jul-12 03:00N 59°51' E 025°10'816.7
2017-Jul-12 02:30N 59°53' E 025°26'816.3
2017-Jul-12 02:00N 59°54' E 025°43'816.4
2017-Jul-12 01:30N 59°56' E 025°58'816.4
2017-Jul-12 01:00N 59°58' E 026°14'816.6
2017-Jul-12 00:30N 60°01' E 026°30'816.4
2017-Jul-12 00:00N 60°01' E 026°46'816.6
2017-Jul-11 23:30N 59°60' E 027°03'816.5
2017-Jul-11 23:00N 60°03' E 027°17'816.5
2017-Jul-11 22:31N 60°08' E 027°31'816.4
2017-Jul-11 22:01N 60°12' E 027°46'816.6
2017-Jul-11 21:31N 60°10' E 028°02'816.6
2017-Jul-11 21:01N 60°08' E 028°18'1019.2
2017-Jul-11 20:30N 60°03' E 028°35'816.4
2017-Jul-11 20:00N 60°03' E 028°51'714.2
2017-Jul-11 19:30N 60°02' E 029°05'816.7
2017-Jul-11 19:00N 60°02' E 029°22'1511.7
2017-Jul-11 17:42N 59°57' E 029°51'211.8
2017-Jul-11 17:30N 59°56' E 029°56'510.2
2017-Jul-11 17:00N 59°56' E 030°06'3 6.0
2017-Jul-11 16:30N 59°57' E 030°11'0 0.0
2017-Jul-11 15:58N 59°57' E 030°11'0 0.0
2017-Jul-11 15:29N 59°57' E 030°11'0 0.0
2017-Jul-11 14:58N 59°57' E 030°11'0 0.0
2017-Jul-11 14:25N 59°57' E 030°11'0 0.0
2017-Jul-11 14:01N 59°57' E 030°11'0 0.0
2017-Jul-11 13:30N 59°57' E 030°11'0 0.0
2017-Jul-11 12:59N 59°57' E 030°11'0 0.0
2017-Jul-11 12:30N 59°57' E 030°11'0 0.0
2017-Jul-11 11:56N 59°57' E 030°11'0 0.0
2017-Jul-11 11:30N 59°57' E 030°11'0 0.0
2017-Jul-11 10:58N 59°57' E 030°11'0 0.0
2017-Jul-11 10:22N 59°57' E 030°11'0 0.0
2017-Jul-11 09:58N 59°57' E 030°11'0 0.0
2017-Jul-11 09:29N 59°57' E 030°11'0 0.0
2017-Jul-11 09:00N 59°57' E 030°11'0 0.0
2017-Jul-11 08:29N 59°57' E 030°11'0 0.0
2017-Jul-11 08:00N 59°57' E 030°11'0 0.0
2017-Jul-11 07:30N 59°57' E 030°11'0 0.0
2017-Jul-11 07:00N 59°57' E 030°11'0 0.0
2017-Jul-11 06:29N 59°57' E 030°11'  
Track history (hours):
 
Tides and Currents Weather Stations Pressure Air Temp Water Temp Dewpoint Dewpoint Depression Visibility Wind Speed Wind Dir Waves Ship Positions

Aidamar

Last reported at 2017-Jul-21 06:22 UTC. Time now 2017-Jul-21 08:45 UTC.
Position N 57°57' E 018°12'.

Length 253 m; draft 7.3 m.

Type: Passenger vessel. MMSI: 247312900.

Date/timePositionNaut miles runAvg speedWind from/ knotsBaromVisibWave heightAir tempDewpointWater temp
2017-Jul-21 06:22N 57°57' E 018°12'6216.1
2017-Jul-21 02:33N 58°50' E 019°11'316.4
2017-Jul-21 02:23N 58°52' E 019°14'616.0
2017-Jul-21 02:00N 58°57' E 019°20'916.3
2017-Jul-21 01:27N 59°05' E 019°29'716.3
2017-Jul-21 01:00N 59°11' E 019°36'816.1
2017-Jul-21 00:30N 59°18' E 019°44'816.5
2017-Jul-21 00:00N 59°25' E 019°52'816.5
2017-Jul-20 23:30N 59°33' E 019°58'815.7
2017-Jul-20 23:00N 59°40' E 019°51'816.0
2017-Jul-20 22:30N 59°45' E 019°38'815.5
2017-Jul-20 22:00N 59°46' E 019°23'714.2
2017-Jul-20 21:30N 59°44' E 019°10'815.9
2017-Jul-20 21:00N 59°40' E 018°56'611.6
2017-Jul-20 20:30N 59°36' E 018°47'4 9.0
2017-Jul-20 20:00N 59°34' E 018°39'5 9.9
2017-Jul-20 19:30N 59°31' E 018°31'5 9.4
2017-Jul-20 19:01N 59°27' E 018°26'4 8.3
2017-Jul-20 18:30N 59°23' E 018°27'3 6.4
2017-Jul-20 18:00N 59°22' E 018°21'510.8
2017-Jul-20 17:30N 59°20' E 018°11'2 2.9
2017-Jul-20 16:54N 59°21' E 018°08'0 0.0
2017-Jul-20 16:30N 59°21' E 018°08'0 0.0
2017-Jul-20 16:00N 59°21' E 018°08'0 0.0
2017-Jul-20 15:29N 59°21' E 018°08'0 0.0
2017-Jul-20 14:57N 59°21' E 018°08'0 0.0
2017-Jul-20 13:59N 59°21' E 018°08'0 0.0
2017-Jul-20 13:28N 59°21' E 018°08'0 0.0
2017-Jul-20 12:57N 59°21' E 018°08'0 0.0
2017-Jul-20 12:30N 59°21' E 018°08'0 0.0
2017-Jul-20 12:01N 59°21' E 018°08'0 0.0
2017-Jul-20 11:29N 59°21' E 018°08'0 0.0
2017-Jul-20 10:58N 59°21' E 018°08'0 0.0
2017-Jul-20 10:27N 59°21' E 018°08'0 0.0
2017-Jul-20 10:00N 59°21' E 018°08'0 0.0
2017-Jul-20 09:29N 59°21' E 018°08'0 0.0
2017-Jul-20 08:56N 59°21' E 018°08'0 0.0
2017-Jul-20 08:26N 59°21' E 018°08'0 0.0
2017-Jul-20 07:59N 59°21' E 018°08'0 0.0
2017-Jul-20 07:31N 59°21' E 018°08'2 4.7
2017-Jul-20 07:01N 59°20' E 018°12'510.9
2017-Jul-20 06:30N 59°22' E 018°22'3 5.2
2017-Jul-20 06:00N 59°24' E 018°26'4 8.9
2017-Jul-20 05:30N 59°28' E 018°26'510.4
2017-Jul-20 05:00N 59°32' E 018°33'510.5
2017-Jul-20 04:30N 59°35' E 018°42'612.5
2017-Jul-20 04:00N 59°38' E 018°52'510.8
2017-Jul-20 03:31N 59°42' E 019°01'815.5
2017-Jul-20 03:01N 59°45' E 019°15'713.9
2017-Jul-20 02:30N 59°47' E 019°28'714.3
2017-Jul-20 02:00N 59°48' E 019°42'815.7
2017-Jul-20 01:30N 59°43' E 019°54'815.8
2017-Jul-20 01:00N 59°38' E 020°06'816.1
2017-Jul-20 00:30N 59°36' E 020°22'816.0
2017-Jul-20 00:00N 59°35' E 020°37'815.8
2017-Jul-19 23:31N 59°34' E 020°53'815.8
2017-Jul-19 23:01N 59°32' E 021°08'815.9
2017-Jul-19 22:31N 59°30' E 021°23'816.0
2017-Jul-19 22:00N 59°29' E 021°39'815.8
2017-Jul-19 21:31N 59°28' E 021°54'815.6
2017-Jul-19 21:01N 59°27' E 022°09'816.2
2017-Jul-19 20:30N 59°29' E 022°24'816.2
2017-Jul-19 20:00N 59°31' E 022°40'816.9
2017-Jul-19 19:30N 59°33' E 022°56'714.5
2017-Jul-19 19:01N 59°36' E 023°10'815.7
2017-Jul-19 18:31N 59°38' E 023°24'815.8
2017-Jul-19 18:01N 59°40' E 023°39'815.8
2017-Jul-19 17:31N 59°43' E 023°54'815.8
2017-Jul-19 17:01N 59°46' E 024°09'815.7
2017-Jul-19 16:31N 59°49' E 024°22'815.5
2017-Jul-19 16:00N 59°53' E 024°36'714.8
2017-Jul-19 15:30N 59°57' E 024°48'5 9.7
2017-Jul-19 15:01N 60°01' E 024°54'4 8.7
2017-Jul-19 14:31N 60°06' E 024°54'3 6.4
2017-Jul-19 13:59N 60°09' E 024°55'0 0.0
2017-Jul-19 13:29N 60°09' E 024°55'0 0.0
2017-Jul-19 12:58N 60°09' E 024°55'0 0.0
2017-Jul-19 12:30N 60°09' E 024°55'0 0.0
2017-Jul-19 11:59N 60°09' E 024°55'0 0.0
2017-Jul-19 11:29N 60°09' E 024°55'0 0.0
2017-Jul-19 10:59N 60°09' E 024°55'0 0.0
2017-Jul-19 10:29N 60°09' E 024°55'0 0.0
2017-Jul-19 09:59N 60°09' E 024°55'0 0.0
2017-Jul-19 09:29N 60°09' E 024°55'0 0.0
2017-Jul-19 08:59N 60°09' E 024°55'0 0.0
2017-Jul-19 08:29N 60°09' E 024°55'0 0.0
2017-Jul-19 07:59N 60°09' E 024°55'0 0.0
2017-Jul-19 07:29N 60°09' E 024°55'0 0.0
2017-Jul-19 06:59N 60°09' E 024°55'0 0.0
2017-Jul-19 06:29N 60°09' E 024°55'0 0.0
2017-Jul-19 05:59N 60°09' E 024°55'0 0.0
2017-Jul-19 05:30N 60°09' E 024°55'1 1.9
2017-Jul-19 05:00N 60°08' E 024°54'612.4
2017-Jul-19 04:31N 60°02' E 024°55'713.1
2017-Jul-19 04:01N 59°56' E 025°02'815.7
2017-Jul-19 03:31N 59°56' E 025°18'815.6
2017-Jul-19 03:01N 59°55' E 025°34'815.5
2017-Jul-19 02:30N 59°55' E 025°49'815.6
2017-Jul-19 02:01N 59°57' E 026°04'815.7
2017-Jul-19 01:31N 59°59' E 026°19'815.6
2017-Jul-19 01:01N 60°01' E 026°34'815.5
2017-Jul-19 00:30N 60°00' E 026°50'815.2
2017-Jul-19 00:01N 59°60' E 027°05'815.9
2017-Jul-18 23:30N 60°04' E 027°18'815.8
2017-Jul-18 23:00N 60°08' E 027°32'815.7
2017-Jul-18 22:31N 60°12' E 027°45'815.1
2017-Jul-18 22:00N 60°10' E 027°60'815.1
2017-Jul-18 21:30N 60°08' E 028°14'815.1
2017-Jul-18 21:00N 60°04' E 028°27'815.8
2017-Jul-18 20:30N 60°03' E 028°43'713.9
2017-Jul-18 20:00N 60°03' E 028°56'816.3
2017-Jul-18 19:30N 60°02' E 029°13'713.1
2017-Jul-18 18:59N 60°02' E 029°26'611.5
2017-Jul-18 18:30N 60°00' E 029°37'1510.1
2017-Jul-18 17:01N 59°57' E 030°06'0 9.9
2017-Jul-18 17:00N 59°57' E 030°06'3 5.1
2017-Jul-18 16:30N 59°57' E 030°11'0 0.0
2017-Jul-18 15:54N 59°57' E 030°11'0 0.0
2017-Jul-18 15:19N 59°57' E 030°11'0 0.0
2017-Jul-18 14:57N 59°57' E 030°11'0 0.0
2017-Jul-18 13:59N 59°57' E 030°11'0 0.0
2017-Jul-18 13:29N 59°57' E 030°11'0 0.0
2017-Jul-18 12:59N 59°57' E 030°11'0 0.0
2017-Jul-18 12:28N 59°57' E 030°11'0 0.0
2017-Jul-18 12:01N 59°57' E 030°11'0 0.0
2017-Jul-18 11:30N 59°57' E 030°11'0 0.0
2017-Jul-18 11:00N 59°57' E 030°11'0 0.0
2017-Jul-18 10:26N 59°57' E 030°11'0 0.0
2017-Jul-18 10:00N 59°57' E 030°11'0 0.0
2017-Jul-18 09:29N 59°57' E 030°11'0 0.0
2017-Jul-18 09:00N 59°57' E 030°11'0 0.0
2017-Jul-18 08:27N 59°57' E 030°11'0 0.0
2017-Jul-18 07:53N 59°57' E 030°11'0 0.0
2017-Jul-18 07:29N 59°57' E 030°11'0 0.0
2017-Jul-18 07:00N 59°57' E 030°11'0 0.0
2017-Jul-18 06:30N 59°57' E 030°11'0 0.0
2017-Jul-18 05:59N 59°57' E 030°11'0 0.0
2017-Jul-18 05:29N 59°57' E 030°11'0 0.0
2017-Jul-18 04:45N 59°57' E 030°11'0 0.0
2017-Jul-18 04:30N 59°57' E 030°11'0 0.3
2017-Jul-18 04:00N 59°57' E 030°11'4 7.5
2017-Jul-18 03:30N 59°56' E 030°04'510.8
2017-Jul-18 03:00N 59°57' E 029°53'510.3
2017-Jul-18 02:30N 59°59' E 029°44'2112.6
2017-Jul-18 00:50N 60°02' E 029°02'515.9
2017-Jul-18 00:30N 60°02' E 028°52'815.7
2017-Jul-18 00:01N 60°02' E 028°36'714.6
2017-Jul-17 23:30N 60°04' E 028°23'815.1
2017-Jul-17 23:01N 60°08' E 028°09'815.6
2017-Jul-17 22:31N 60°10' E 027°54'714.8
2017-Jul-17 22:00N 60°09' E 027°40'815.2
2017-Jul-17 21:30N 60°05' E 027°27'815.4
2017-Jul-17 21:01N 60°01' E 027°13'815.6
2017-Jul-17 20:31N 59°58' E 026°59'715.0
2017-Jul-17 20:01N 59°59' E 026°44'714.3
2017-Jul-17 19:30N 59°58' E 026°30'815.3
2017-Jul-17 19:00N 59°56' E 026°15'815.4
2017-Jul-17 18:30N 59°54' E 026°01'815.3
2017-Jul-17 18:00N 59°51' E 025°46'815.5
2017-Jul-17 17:30N 59°49' E 025°32'815.5
2017-Jul-17 17:00N 59°47' E 025°17'815.7
2017-Jul-17 16:30N 59°44' E 025°02'815.7
2017-Jul-17 16:01N 59°41' E 024°48'713.3
2017-Jul-17 15:30N 59°35' E 024°43'714.4
2017-Jul-17 15:01N 59°28' E 024°46'1 1.1
2017-Jul-17 14:28N 59°27' E 024°46'0 0.0
2017-Jul-17 13:58N 59°27' E 024°46'0 0.0
2017-Jul-17 13:29N 59°27' E 024°46'0 0.0
2017-Jul-17 12:57N 59°27' E 024°46'0 0.0
2017-Jul-17 12:30N 59°27' E 024°46'0 0.0
2017-Jul-17 12:00N 59°27' E 024°46'0 0.0
2017-Jul-17 11:30N 59°27' E 024°46'0 0.0
2017-Jul-17 11:00N 59°27' E 024°46'0 0.0
2017-Jul-17 10:29N 59°27' E 024°46'0 0.0
2017-Jul-17 09:59N 59°27' E 024°46'0 0.0
2017-Jul-17 09:29N 59°27' E 024°46'0 0.0
2017-Jul-17 08:59N 59°27' E 024°46'0 0.0
2017-Jul-17 08:24N 59°27' E 024°46'0 0.0
2017-Jul-17 07:56N 59°27' E 024°46'0 0.0
2017-Jul-17 07:29N 59°27' E 024°46'0 0.0
2017-Jul-17 06:59N 59°27' E 024°46'0 0.0
2017-Jul-17 06:29N 59°27' E 024°46'0 0.0
2017-Jul-17 06:00N 59°27' E 024°46'0 0.0
2017-Jul-17 05:30N 59°27' E 024°46'2 3.7
2017-Jul-17 05:00N 59°29' E 024°45'713.2
2017-Jul-17 04:30N 59°30' E 024°33'612.2
2017-Jul-17 04:00N 59°30' E 024°21'713.6
2017-Jul-17 03:30N 59°30' E 024°07'714.5
2017-Jul-17 03:00N 59°30' E 023°53'714.4
2017-Jul-17 02:30N 59°30' E 023°39'714.5
2017-Jul-17 02:01N 59°30' E 023°24'714.5
2017-Jul-17 01:30N 59°30' E 023°10'714.7
2017-Jul-17 01:00N 59°28' E 022°56'714.6
2017-Jul-17 00:31N 59°26' E 022°42'714.3
2017-Jul-17 00:00N 59°22' E 022°30'714.5
2017-Jul-16 23:31N 59°18' E 022°18'714.6
2017-Jul-16 23:00N 59°14' E 022°07'714.6
2017-Jul-16 22:30N 59°09' E 021°55'714.4
2017-Jul-16 22:01N 59°05' E 021°45'714.6
2017-Jul-16 21:31N 58°59' E 021°37'815.2
2017-Jul-16 21:00N 58°52' E 021°29'816.1
2017-Jul-16 20:30N 58°46' E 021°20'713.4
2017-Jul-16 20:00N 58°40' E 021°13'713.2
2017-Jul-16 19:30N 58°35' E 021°06'714.0
2017-Jul-16 19:01N 58°29' E 020°58'714.4
2017-Jul-16 18:30N 58°23' E 020°51'714.6
2017-Jul-16 18:00N 58°17' E 020°43'714.6
2017-Jul-16 17:30N 58°11' E 020°35'714.8
2017-Jul-16 17:01N 58°05' E 020°27'714.9
2017-Jul-16 16:30N 57°58' E 020°20'816.4
2017-Jul-16 16:00N 57°52' E 020°11'714.9
2017-Jul-16 15:30N 57°46' E 020°01'714.5
2017-Jul-16 15:00N 57°40' E 019°53'714.1
2017-Jul-16 14:30N 57°35' E 019°45'816.4
2017-Jul-16 14:00N 57°29' E 019°35'714.4
2017-Jul-16 13:30N 57°23' E 019°27'714.5
2017-Jul-16 13:00N 57°17' E 019°19'814.5
2017-Jul-16 12:26N 57°11' E 019°09'716.3
2017-Jul-16 12:00N 57°05' E 019°01'713.9
2017-Jul-16 11:29N 56°59' E 018°53'1215.8
2017-Jul-16 10:45N 56°51' E 018°38'414.9
2017-Jul-16 10:30N 56°49' E 018°33'815.1
2017-Jul-16 10:00N 56°44' E 018°22'1014.9
2017-Jul-16 09:21N 56°38' E 018°08'514.0
2017-Jul-16 09:00N 56°35' E 018°01'913.6
2017-Jul-16 08:21N 56°30' E 017°48'515.0
2017-Jul-16 08:00N 56°27' E 017°41'715.2
2017-Jul-16 07:31N 56°22' E 017°30'816.9
2017-Jul-16 07:00N 56°17' E 017°18'714.1
2017-Jul-16 06:31N 56°12' E 017°08'714.8
2017-Jul-16 06:01N 56°08' E 016°58'714.6
2017-Jul-16 05:31N 56°04' E 016°47'815.6
2017-Jul-16 05:01N 55°60' E 016°35'816.3
2017-Jul-16 04:31N 55°56' E 016°22'816.3
2017-Jul-16 04:00N 55°52' E 016°09'816.4
2017-Jul-16 03:30N 55°48' E 015°56'816.4
2017-Jul-16 03:00N 55°44' E 015°43'816.4
2017-Jul-16 02:30N 55°40' E 015°31'816.7
2017-Jul-16 02:00N 55°36' E 015°18'816.7
2017-Jul-16 01:31N 55°32' E 015°05'816.9
2017-Jul-16 01:01N 55°28' E 014°52'816.7
2017-Jul-16 00:31N 55°24' E 014°40'816.3
2017-Jul-16 00:01N 55°17' E 014°31'816.2
2017-Jul-15 23:31N 55°10' E 014°23'816.3
2017-Jul-15 23:01N 55°04' E 014°14'815.4
2017-Jul-15 22:31N 54°60' E 014°03'816.3
2017-Jul-15 22:01N 54°58' E 013°49'816.5
2017-Jul-15 21:30N 54°55' E 013°35'816.5
2017-Jul-15 21:00N 54°53' E 013°22'916.5
2017-Jul-15 20:29N 54°50' E 013°08'1016.1
2017-Jul-15 19:50N 54°47' E 012°50'515.5
2017-Jul-15 19:31N 54°45' E 012°42'2515.1
2017-Jul-15 17:50N 54°26' E 012°12'516.0
2017-Jul-15 17:30N 54°22' E 012°07'714.8
2017-Jul-15 17:00N 54°15' E 012°05'4 1.2
2017-Jul-15 13:40N 54°11' E 012°06'0 0.0
2017-Jul-15 13:09N 54°11' E 012°06'0 0.0
2017-Jul-15 13:00N 54°11' E 012°06'0 0.0
2017-Jul-15 06:12N 54°11' E 012°06'0 0.0
2017-Jul-15 05:57N 54°11' E 012°06'0 0.0
2017-Jul-15 05:30N 54°11' E 012°06'0 0.0
2017-Jul-15 05:00N 54°11' E 012°06'3 4.1
2017-Jul-15 04:22N 54°13' E 012°04'5 7.4
2017-Jul-15 03:41N 54°18' E 012°01'412.1
2017-Jul-15 03:21N 54°21' E 011°58'611.2
2017-Jul-15 02:49N 54°26' E 012°04'414.7
2017-Jul-15 02:30N 54°29' E 012°11'815.6
2017-Jul-15 02:00N 54°36' E 012°15'815.1
2017-Jul-15 01:30N 54°41' E 012°25'815.5
2017-Jul-15 01:00N 54°45' E 012°36'715.0
2017-Jul-15 00:30N 54°48' E 012°48'1615.1
2017-Jul-14 23:26N 54°54' E 013°14'715.1
2017-Jul-14 22:59N 54°56' E 013°25'715.2
2017-Jul-14 22:30N 54°59' E 013°37'815.2
2017-Jul-14 22:00N 55°01' E 013°50'815.1
2017-Jul-14 21:30N 55°04' E 014°02'714.9
2017-Jul-14 21:00N 55°09' E 014°11'815.9
2017-Jul-14 20:30N 55°15' E 014°20'815.3
2017-Jul-14 20:00N 55°21' E 014°29'815.4
2017-Jul-14 19:30N 55°27' E 014°38'815.2
2017-Jul-14 19:00N 55°31' E 014°49'815.1
2017-Jul-14 18:30N 55°34' E 015°01'715.0
2017-Jul-14 18:00N 55°38' E 015°12'815.5
2017-Jul-14 17:30N 55°42' E 015°24'815.4
2017-Jul-14 17:01N 55°46' E 015°36'815.3
2017-Jul-14 16:30N 55°49' E 015°48'815.3
2017-Jul-14 16:01N 55°53' E 015°60'714.8
2017-Jul-14 15:31N 55°57' E 016°11'713.9
2017-Jul-14 15:01N 56°01' E 016°21'815.5
2017-Jul-14 14:30N 56°05' E 016°33'713.1
2017-Jul-14 14:00N 56°08' E 016°43'713.8
2017-Jul-14 13:28N 56°15' E 016°49'715.4
2017-Jul-14 13:01N 56°22' E 016°53'815.1
2017-Jul-14 12:30N 56°29' E 016°58'18315.6
2017-Jul-14 00:48N 59°12' E 019°34'515.4
2017-Jul-14 00:30N 59°15' E 019°40'815.2
2017-Jul-14 00:00N 59°21' E 019°48'815.3
2017-Jul-13 23:31N 59°28' E 019°55'815.2
2017-Jul-13 23:01N 59°35' E 019°58'815.8
2017-Jul-13 22:31N 59°42' E 019°49'816.0
2017-Jul-13 22:00N 59°46' E 019°35'714.4
2017-Jul-13 21:30N 59°46' E 019°20'714.3
2017-Jul-13 21:01N 59°43' E 019°07'714.6
2017-Jul-13 20:31N 59°39' E 018°55'510.2
2017-Jul-13 20:00N 59°36' E 018°47'612.3
2017-Jul-13 19:30N 59°33' E 018°36'4 8.6
2017-Jul-13 19:01N 59°31' E 018°29'611.1
2017-Jul-13 18:30N 59°26' E 018°23'4 6.3
2017-Jul-13 17:52N 59°22' E 018°24'410.3
2017-Jul-13 17:29N 59°22' E 018°16'510.3
2017-Jul-13 17:00N 59°19' E 018°07'1 1.2
2017-Jul-13 16:30N 59°19' E 018°06'0 0.0
2017-Jul-13 15:59N 59°19' E 018°06'0 0.0
2017-Jul-13 15:28N 59°19' E 018°06'0 0.0
2017-Jul-13 14:56N 59°19' E 018°06'0 0.0
2017-Jul-13 14:28N 59°19' E 018°06'0 0.0
2017-Jul-13 14:00N 59°19' E 018°06'0 0.0
2017-Jul-13 13:27N 59°19' E 018°06'0 0.0
2017-Jul-13 13:00N 59°19' E 018°06'0 0.0
2017-Jul-13 12:30N 59°19' E 018°06'0 0.0
2017-Jul-13 11:59N 59°19' E 018°06'0 0.0
2017-Jul-13 11:31N 59°19' E 018°06'0 0.0
2017-Jul-13 10:58N 59°19' E 018°06'0 0.0
2017-Jul-13 10:30N 59°19' E 018°06'0 0.0
2017-Jul-13 09:59N 59°19' E 018°06'0 0.0
2017-Jul-13 09:29N 59°19' E 018°06'0 0.0
2017-Jul-13 08:59N 59°19' E 018°06'0 0.0
2017-Jul-13 08:26N 59°19' E 018°06'0 0.0
2017-Jul-13 07:58N 59°19' E 018°06'0 0.0
2017-Jul-13 07:30N 59°19' E 018°06'1 1.2
2017-Jul-13 07:01N 59°19' E 018°07'5 9.8
2017-Jul-13 06:31N 59°22' E 018°16'5 9.3
2017-Jul-13 06:00N 59°22' E 018°25'3 6.6
2017-Jul-13 05:30N 59°25' E 018°24'510.0
2017-Jul-13 05:00N 59°30' E 018°28'5 9.7
2017-Jul-13 04:30N 59°33' E 018°35'510.6
2017-Jul-13 04:00N 59°35' E 018°45'611.8
2017-Jul-13 03:30N 59°39' E 018°54'611.7
2017-Jul-13 03:00N 59°42' E 019°03'815.5
2017-Jul-13 02:30N 59°45' E 019°17'612.1
2017-Jul-13 02:00N 59°47' E 019°29'713.5
2017-Jul-13 01:30N 59°48' E 019°42'714.9
2017-Jul-13 01:00N 59°43' E 019°54'815.1
2017-Jul-13 00:30N 59°38' E 020°04'815.1
2017-Jul-13 00:00N 59°36' E 020°19'815.6
2017-Jul-12 23:31N 59°36' E 020°34'816.0
2017-Jul-12 23:00N 59°35' E 020°50'917.2
2017-Jul-12 22:31N 59°34' E 021°07'816.2
2017-Jul-12 22:00N 59°33' E 021°23'713.7
2017-Jul-12 21:30N 59°32' E 021°36'816.9
2017-Jul-12 21:00N 59°30' E 021°53'815.9
2017-Jul-12 20:30N 59°30' E 022°08'815.2
2017-Jul-12 20:00N 59°30' E 022°23'917.2
2017-Jul-12 19:31N 59°31' E 022°40'714.2
2017-Jul-12 19:00N 59°32' E 022°54'815.3
2017-Jul-12 18:31N 59°33' E 023°09'917.5
2017-Jul-12 18:00N 59°32' E 023°26'815.2
2017-Jul-12 17:30N 59°32' E 023°41'815.3
2017-Jul-12 17:00N 59°31' E 023°56'714.3
2017-Jul-12 16:31N 59°30' E 024°10'816.2
2017-Jul-12 16:00N 59°30' E 024°26'714.7
2017-Jul-12 15:30N 59°32' E 024°40'5 9.2
2017-Jul-12 15:00N 59°28' E 024°46'1 0.8
2017-Jul-12 13:58N 59°27' E 024°46'0 0.0
2017-Jul-12 13:30N 59°27' E 024°46'0 0.0
2017-Jul-12 12:55N 59°27' E 024°46'0 0.0
2017-Jul-12 12:27N 59°27' E 024°46'0 0.0
2017-Jul-12 11:59N 59°27' E 024°46'0 0.0
2017-Jul-12 11:30N 59°27' E 024°46'0 0.0
2017-Jul-12 10:56N 59°27' E 024°46'0 0.0
2017-Jul-12 10:28N 59°27' E 024°46'0 0.0
2017-Jul-12 09:58N 59°27' E 024°46'0 0.0
2017-Jul-12 09:28N 59°27' E 024°46'0 0.0
2017-Jul-12 08:55N 59°27' E 024°46'0 0.0
2017-Jul-12 08:28N 59°27' E 024°46'0 0.0
2017-Jul-12 07:59N 59°27' E 024°46'0 0.0
2017-Jul-12 07:30N 59°27' E 024°46'0 0.0
2017-Jul-12 07:00N 59°27' E 024°46'0 0.0
2017-Jul-12 06:30N 59°27' E 024°46'0 0.0
2017-Jul-12 06:00N 59°27' E 024°46'0 0.4
2017-Jul-12 05:30N 59°27' E 024°46'4 8.0
2017-Jul-12 05:00N 59°31' E 024°44'714.7
2017-Jul-12 04:30N 59°38' E 024°39'714.3
2017-Jul-12 04:00N 59°45' E 024°42'815.6
2017-Jul-12 03:30N 59°50' E 024°54'816.7
2017-Jul-12 03:00N 59°51' E 025°10'816.7
2017-Jul-12 02:30N 59°53' E 025°26'816.3
2017-Jul-12 02:00N 59°54' E 025°43'816.4
2017-Jul-12 01:30N 59°56' E 025°58'816.4
2017-Jul-12 01:00N 59°58' E 026°14'816.6
2017-Jul-12 00:30N 60°01' E 026°30'816.4
2017-Jul-12 00:00N 60°01' E 026°46'816.6
2017-Jul-11 23:30N 59°60' E 027°03'816.5
2017-Jul-11 23:00N 60°03' E 027°17'816.5
2017-Jul-11 22:31N 60°08' E 027°31'816.4
2017-Jul-11 22:01N 60°12' E 027°46'816.6
2017-Jul-11 21:31N 60°10' E 028°02'816.6
2017-Jul-11 21:01N 60°08' E 028°18'1019.2
2017-Jul-11 20:30N 60°03' E 028°35'816.4
2017-Jul-11 20:00N 60°03' E 028°51'714.2
2017-Jul-11 19:30N 60°02' E 029°05'816.7
2017-Jul-11 19:00N 60°02' E 029°22'1511.7
2017-Jul-11 17:42N 59°57' E 029°51'211.8
2017-Jul-11 17:30N 59°56' E 029°56'510.2
2017-Jul-11 17:00N 59°56' E 030°06'3 6.0
2017-Jul-11 16:30N 59°57' E 030°11'0 0.0
2017-Jul-11 15:58N 59°57' E 030°11'0 0.0
2017-Jul-11 15:29N 59°57' E 030°11'0 0.0
2017-Jul-11 14:58N 59°57' E 030°11'0 0.0
2017-Jul-11 14:25N 59°57' E 030°11'0 0.0
2017-Jul-11 14:01N 59°57' E 030°11'0 0.0
2017-Jul-11 13:30N 59°57' E 030°11'0 0.0
2017-Jul-11 12:59N 59°57' E 030°11'0 0.0
2017-Jul-11 12:30N 59°57' E 030°11'0 0.0
2017-Jul-11 11:56N 59°57' E 030°11'0 0.0
2017-Jul-11 11:30N 59°57' E 030°11'0 0.0
2017-Jul-11 10:58N 59°57' E 030°11'0 0.0
2017-Jul-11 10:22N 59°57' E 030°11'0 0.0
2017-Jul-11 09:58N 59°57' E 030°11'0 0.0
2017-Jul-11 09:29N 59°57' E 030°11'0 0.0
2017-Jul-11 09:00N 59°57' E 030°11'0 0.0
2017-Jul-11 08:29N 59°57' E 030°11'0 0.0
2017-Jul-11 08:00N 59°57' E 030°11'0 0.0
2017-Jul-11 07:30N 59°57' E 030°11'0 0.0
2017-Jul-11 07:00N 59°57' E 030°11'0 0.0
2017-Jul-11 06:29N 59°57' E 030°11'  

Dump ship's entire track history